sensor_id;sensor_type;location;lat;lon;timestamp;pressure;altitude;pressure_sealevel;temperature;humidity
21594;BME280;10959;51.328;7.322;2022-07-24T00:01:06;99226.22;;;20.49;62.96
21594;BME280;10959;51.328;7.322;2022-07-24T00:03:33;99222.47;;;20.50;63.07
21594;BME280;10959;51.328;7.322;2022-07-24T00:06:00;99216.41;;;20.46;63.29
21594;BME280;10959;51.328;7.322;2022-07-24T00:08:26;99216.41;;;20.46;62.81
21594;BME280;10959;51.328;7.322;2022-07-24T00:10:53;99213.78;;;20.45;63.12
21594;BME280;10959;51.328;7.322;2022-07-24T00:13:20;99214.81;;;20.44;62.76
21594;BME280;10959;51.328;7.322;2022-07-24T00:15:47;99207.44;;;20.44;62.92
21594;BME280;10959;51.328;7.322;2022-07-24T00:18:15;99211.19;;;20.43;62.72
21594;BME280;10959;51.328;7.322;2022-07-24T00:20:42;99203.50;;;20.37;62.89
21594;BME280;10959;51.328;7.322;2022-07-24T00:23:11;99204.75;;;20.33;62.69
21594;BME280;10959;51.328;7.322;2022-07-24T00:25:38;99208.25;;;20.35;63.08
21594;BME280;10959;51.328;7.322;2022-07-24T00:28:04;99201.28;;;20.31;62.79
21594;BME280;10959;51.328;7.322;2022-07-24T00:30:31;99201.28;;;20.31;62.52
21594;BME280;10959;51.328;7.322;2022-07-24T00:32:58;99194.06;;;20.30;63.29
21594;BME280;10959;51.328;7.322;2022-07-24T00:35:26;99189.47;;;20.30;62.97
21594;BME280;10959;51.328;7.322;2022-07-24T00:37:53;99192.59;;;20.26;62.95
21594;BME280;10959;51.328;7.322;2022-07-24T00:40:20;99195.47;;;20.24;63.36
21594;BME280;10959;51.328;7.322;2022-07-24T00:42:47;99198.31;;;20.23;62.88
21594;BME280;10959;51.328;7.322;2022-07-24T00:45:13;99196.31;;;20.25;63.17
21594;BME280;10959;51.328;7.322;2022-07-24T00:47:40;99196.31;;;20.25;62.87
21594;BME280;10959;51.328;7.322;2022-07-24T00:50:07;99197.19;;;20.25;62.58
21594;BME280;10959;51.328;7.322;2022-07-24T00:52:36;99194.59;;;20.24;62.47
21594;BME280;10959;51.328;7.322;2022-07-24T00:55:04;99189.00;;;20.25;62.37
21594;BME280;10959;51.328;7.322;2022-07-24T00:57:31;99187.75;;;20.29;62.79
21594;BME280;10959;51.328;7.322;2022-07-24T00:59:57;99190.63;;;20.28;62.48
21594;BME280;10959;51.328;7.322;2022-07-24T01:02:24;99192.06;;;20.32;62.48
21594;BME280;10959;51.328;7.322;2022-07-24T01:04:51;99190.34;;;20.31;62.72
21594;BME280;10959;51.328;7.322;2022-07-24T01:07:18;99186.84;;;20.29;62.17
21594;BME280;10959;51.328;7.322;2022-07-24T01:09:46;99182.28;;;20.29;62.28
21594;BME280;10959;51.328;7.322;2022-07-24T01:12:13;99190.34;;;20.31;62.36
21594;BME280;10959;51.328;7.322;2022-07-24T01:14:40;99190.09;;;20.34;61.87
21594;BME280;10959;51.328;7.322;2022-07-24T01:17:07;99195.56;;;20.34;61.85
21594;BME280;10959;51.328;7.322;2022-07-24T01:19:34;99193.56;;;20.36;62.09
21594;BME280;10959;51.328;7.322;2022-07-24T01:22:02;99200.75;;;20.37;61.65
21594;BME280;10959;51.328;7.322;2022-07-24T01:24:29;99204.50;;;20.36;62.12
21594;BME280;10959;51.328;7.322;2022-07-24T01:26:56;99199.16;;;20.34;62.00
21594;BME280;10959;51.328;7.322;2022-07-24T01:29:22;99200.03;;;20.35;62.12
21594;BME280;10959;51.328;7.322;2022-07-24T01:31:49;99200.53;;;20.29;61.44
21594;BME280;10959;51.328;7.322;2022-07-24T01:34:16;99200.06;;;20.24;61.41
21594;BME280;10959;51.328;7.322;2022-07-24T01:36:43;99201.56;;;20.28;61.84
21594;BME280;10959;51.328;7.322;2022-07-24T01:39:11;99195.81;;;20.31;61.71
21594;BME280;10959;51.328;7.322;2022-07-24T01:41:38;99200.41;;;20.30;61.73
21594;BME280;10959;51.328;7.322;2022-07-24T01:44:05;99193.34;;;20.28;61.49
21594;BME280;10959;51.328;7.322;2022-07-24T01:46:31;99191.34;;;20.30;61.55
21594;BME280;10959;51.328;7.322;2022-07-24T01:48:58;99193.22;;;20.29;61.41
21594;BME280;10959;51.328;7.322;2022-07-24T01:51:25;99194.59;;;20.24;61.94
21594;BME280;10959;51.328;7.322;2022-07-24T01:53:51;99187.38;;;20.23;61.78
21594;BME280;10959;51.328;7.322;2022-07-24T01:56:19;99190.63;;;20.28;61.73
21594;BME280;10959;51.328;7.322;2022-07-24T01:58:46;99186.25;;;20.25;61.69
21594;BME280;10959;51.328;7.322;2022-07-24T02:01:13;99186.41;;;20.24;61.87
21594;BME280;10959;51.328;7.322;2022-07-24T02:03:39;99187.38;;;20.23;61.55
21594;BME280;10959;51.328;7.322;2022-07-24T02:06:06;99182.63;;;20.25;61.59
21594;BME280;10959;51.328;7.322;2022-07-24T02:08:33;99183.41;;;20.27;61.48
21594;BME280;10959;51.328;7.322;2022-07-24T02:11:00;99178.44;;;20.20;61.47
21594;BME280;10959;51.328;7.322;2022-07-24T02:13:28;99175.72;;;20.20;61.56
21594;BME280;10959;51.328;7.322;2022-07-24T02:15:55;99179.03;;;20.24;61.52
21594;BME280;10959;51.328;7.322;2022-07-24T02:18:21;99178.19;;;20.24;61.48
21594;BME280;10959;51.328;7.322;2022-07-24T02:20:48;99180.16;;;20.22;61.51
21594;BME280;10959;51.328;7.322;2022-07-24T02:23:15;99185.38;;;20.25;61.43
21594;BME280;10959;51.328;7.322;2022-07-24T02:25:43;99179.91;;;20.25;61.66
21594;BME280;10959;51.328;7.322;2022-07-24T02:28:10;99177.56;;;20.20;61.71
21594;BME280;10959;51.328;7.322;2022-07-24T02:30:40;99176.19;;;20.26;61.57
21594;BME280;10959;51.328;7.322;2022-07-24T02:33:07;99181.66;;;20.26;61.33
21594;BME280;10959;51.328;7.322;2022-07-24T02:35:34;99173.72;;;20.23;61.77
21594;BME280;10959;51.328;7.322;2022-07-24T02:38:01;99168.09;;;20.24;61.59
21594;BME280;10959;51.328;7.322;2022-07-24T02:40:28;99174.22;;;20.28;61.40
21594;BME280;10959;51.328;7.322;2022-07-24T02:42:55;99176.19;;;20.26;61.43
21594;BME280;10959;51.328;7.322;2022-07-24T02:45:22;99168.97;;;20.25;61.20
21594;BME280;10959;51.328;7.322;2022-07-24T02:47:51;99165.50;;;20.23;61.38
21594;BME280;10959;51.328;7.322;2022-07-24T02:50:19;99162.50;;;20.26;61.17
21594;BME280;10959;51.328;7.322;2022-07-24T02:52:46;99162.50;;;20.26;61.51
21594;BME280;10959;51.328;7.322;2022-07-24T02:55:13;99165.25;;;20.26;61.47
21594;BME280;10959;51.328;7.322;2022-07-24T02:57:40;99168.97;;;20.25;61.41
21594;BME280;10959;51.328;7.322;2022-07-24T03:00:10;99168.25;;;20.23;61.56
21594;BME280;10959;51.328;7.322;2022-07-24T03:02:37;99167.50;;;20.20;61.41
21594;BME280;10959;51.328;7.322;2022-07-24T03:05:07;99162.53;;;20.14;61.69
21594;BME280;10959;51.328;7.322;2022-07-24T03:07:34;99153.34;;;20.15;61.39
21594;BME280;10959;51.328;7.322;2022-07-24T03:10:01;99154.34;;;20.14;61.44
21594;BME280;10959;51.328;7.322;2022-07-24T03:12:28;99156.09;;;20.15;61.60
21594;BME280;10959;51.328;7.322;2022-07-24T03:14:55;99154.22;;;20.16;61.94
21594;BME280;10959;51.328;7.322;2022-07-24T03:17:22;99149.84;;;20.13;61.75
21594;BME280;10959;51.328;7.322;2022-07-24T03:19:48;99146.41;;;20.11;61.75
21594;BME280;10959;51.328;7.322;2022-07-24T03:22:16;99146.41;;;20.11;61.83
21594;BME280;10959;51.328;7.322;2022-07-24T03:24:43;99149.41;;;20.08;61.57
21594;BME280;10959;51.328;7.322;2022-07-24T03:27:10;99150.00;;;20.12;62.06
21594;BME280;10959;51.328;7.322;2022-07-24T03:29:37;99147.25;;;20.12;62.17
21594;BME280;10959;51.328;7.322;2022-07-24T03:32:04;99146.66;;;20.08;62.28
21594;BME280;10959;51.328;7.322;2022-07-24T03:34:31;99154.09;;;20.06;62.42
21594;BME280;10959;51.328;7.322;2022-07-24T03:36:58;99152.13;;;20.08;62.44
21594;BME280;10959;51.328;7.322;2022-07-24T03:39:26;99146.66;;;20.08;62.52
21594;BME280;10959;51.328;7.322;2022-07-24T03:41:53;99157.59;;;20.08;62.41
21594;BME280;10959;51.328;7.322;2022-07-24T03:44:19;99153.88;;;20.09;62.51
21594;BME280;10959;51.328;7.322;2022-07-24T03:46:46;99157.59;;;20.08;62.41
21594;BME280;10959;51.328;7.322;2022-07-24T03:49:12;99158.59;;;20.07;62.55
21594;BME280;10959;51.328;7.322;2022-07-24T03:51:39;99157.84;;;20.05;62.41
21594;BME280;10959;51.328;7.322;2022-07-24T03:54:06;99155.84;;;20.07;62.25
21594;BME280;10959;51.328;7.322;2022-07-24T03:56:34;99156.75;;;20.08;62.19
21594;BME280;10959;51.328;7.322;2022-07-24T03:59:01;99158.72;;;20.06;62.65
21594;BME280;10959;51.328;7.322;2022-07-24T04:01:29;99157.59;;;20.08;62.51
21594;BME280;10959;51.328;7.322;2022-07-24T04:03:56;99157.59;;;20.08;62.62
21594;BME280;10959;51.328;7.322;2022-07-24T04:06:30;99159.34;;;20.09;62.11
21594;BME280;10959;51.328;7.322;2022-07-24T04:08:56;99160.19;;;20.10;62.59
21594;BME280;10959;51.328;7.322;2022-07-24T04:11:23;99162.81;;;20.11;62.25
21594;BME280;10959;51.328;7.322;2022-07-24T04:13:51;99159.06;;;20.12;62.35
21594;BME280;10959;51.328;7.322;2022-07-24T04:16:18;99158.44;;;20.09;62.83
21594;BME280;10959;51.328;7.322;2022-07-24T04:18:45;99159.34;;;20.09;62.61
21594;BME280;10959;51.328;7.322;2022-07-24T04:21:12;99167.41;;;20.11;63.28
21594;BME280;10959;51.328;7.322;2022-07-24T04:23:39;99161.81;;;20.12;62.79
21594;BME280;10959;51.328;7.322;2022-07-24T04:26:06;99160.78;;;20.13;62.94
21594;BME280;10959;51.328;7.322;2022-07-24T04:28:33;99159.06;;;20.12;62.78
21594;BME280;10959;51.328;7.322;2022-07-24T04:31:01;99162.53;;;20.14;63.12
21594;BME280;10959;51.328;7.322;2022-07-24T04:33:29;99162.53;;;20.14;62.63
21594;BME280;10959;51.328;7.322;2022-07-24T04:35:56;99163.44;;;20.15;63.03
21594;BME280;10959;51.328;7.322;2022-07-24T04:38:23;99161.56;;;20.15;62.87
21594;BME280;10959;51.328;7.322;2022-07-24T04:40:50;99153.34;;;20.15;63.42
21594;BME280;10959;51.328;7.322;2022-07-24T04:43:16;99153.63;;;20.12;63.61
21594;BME280;10959;51.328;7.322;2022-07-24T04:45:43;99158.81;;;20.15;63.10
21594;BME280;10959;51.328;7.322;2022-07-24T04:48:12;99158.81;;;20.15;63.09
21594;BME280;10959;51.328;7.322;2022-07-24T04:50:39;99157.97;;;20.15;63.20
21594;BME280;10959;51.328;7.322;2022-07-24T04:53:05;99165.16;;;20.16;62.99
21594;BME280;10959;51.328;7.322;2022-07-24T04:55:32;99155.81;;;20.18;63.65
21594;BME280;10959;51.328;7.322;2022-07-24T04:57:59;99155.69;;;20.20;63.61
21594;BME280;10959;51.328;7.322;2022-07-24T05:00:25;99159.31;;;20.20;63.52
21594;BME280;10959;51.328;7.322;2022-07-24T05:02:52;99152.81;;;20.22;63.52
21594;BME280;10959;51.328;7.322;2022-07-24T05:05:21;99155.44;;;20.23;63.68
21594;BME280;10959;51.328;7.322;2022-07-24T05:07:48;99152.31;;;20.28;63.89
21594;BME280;10959;51.328;7.322;2022-07-24T05:10:18;99155.78;;;20.30;64.11
21594;BME280;10959;51.328;7.322;2022-07-24T05:12:44;99155.53;;;20.33;63.73
21594;BME280;10959;51.328;7.322;2022-07-24T05:15:11;99161.34;;;20.40;63.86
21594;BME280;10959;51.328;7.322;2022-07-24T05:17:38;99155.75;;;20.41;63.78
21594;BME280;10959;51.328;7.322;2022-07-24T05:20:06;99151.88;;;20.44;64.01
21594;BME280;10959;51.328;7.322;2022-07-24T05:22:34;99161.72;;;20.46;63.65
21594;BME280;10959;51.328;7.322;2022-07-24T05:25:01;99155.56;;;20.54;64.10
21594;BME280;10959;51.328;7.322;2022-07-24T05:27:28;99158.91;;;20.58;63.48
21594;BME280;10959;51.328;7.322;2022-07-24T05:29:54;99156.13;;;20.69;63.18
21594;BME280;10959;51.328;7.322;2022-07-24T05:32:21;99155.63;;;20.75;63.07
21594;BME280;10959;51.328;7.322;2022-07-24T05:34:48;99151.63;;;20.79;63.60
21594;BME280;10959;51.328;7.322;2022-07-24T05:37:14;99144.00;;;20.83;63.28
21594;BME280;10959;51.328;7.322;2022-07-24T05:39:42;99151.16;;;20.95;62.64
21594;BME280;10959;51.328;7.322;2022-07-24T05:42:09;99142.25;;;21.03;63.04
21594;BME280;10959;51.328;7.322;2022-07-24T05:44:36;99147.22;;;21.09;62.64
21594;BME280;10959;51.328;7.322;2022-07-24T05:47:04;99153.63;;;21.19;63.03
21594;BME280;10959;51.328;7.322;2022-07-24T05:49:31;99153.66;;;21.29;62.96
21594;BME280;10959;51.328;7.322;2022-07-24T05:51:58;99154.72;;;21.38;62.73
21594;BME280;10959;51.328;7.322;2022-07-24T05:54:27;99152.03;;;21.48;62.58
21594;BME280;10959;51.328;7.322;2022-07-24T05:56:55;99152.06;;;21.57;62.66
21594;BME280;10959;51.328;7.322;2022-07-24T05:59:22;99150.78;;;21.62;62.23
21594;BME280;10959;51.328;7.322;2022-07-24T06:01:49;99154.72;;;21.69;62.52
21594;BME280;10959;51.328;7.322;2022-07-24T06:04:15;99148.41;;;21.78;61.80
21594;BME280;10959;51.328;7.322;2022-07-24T06:06:42;99160.56;;;21.85;61.95
21594;BME280;10959;51.328;7.322;2022-07-24T06:09:09;99158.00;;;21.94;61.83
21594;BME280;10959;51.328;7.322;2022-07-24T06:11:35;99153.38;;;22.04;61.34
21594;BME280;10959;51.328;7.322;2022-07-24T06:14:03;99157.31;;;22.11;61.45
21594;BME280;10959;51.328;7.322;2022-07-24T06:16:30;99156.88;;;22.25;61.00
21594;BME280;10959;51.328;7.322;2022-07-24T06:18:57;99146.81;;;22.36;60.96
21594;BME280;10959;51.328;7.322;2022-07-24T06:21:23;99151.47;;;22.45;61.04
21594;BME280;10959;51.328;7.322;2022-07-24T06:23:50;99144.78;;;22.57;60.39
21594;BME280;10959;51.328;7.322;2022-07-24T06:26:17;99151.88;;;22.70;60.42
21594;BME280;10959;51.328;7.322;2022-07-24T06:28:44;99147.97;;;22.82;60.68
21594;BME280;10959;51.328;7.322;2022-07-24T06:31:11;99146.78;;;22.94;60.28
21594;BME280;10959;51.328;7.322;2022-07-24T06:33:38;99147.34;;;23.08;60.38
21594;BME280;10959;51.328;7.322;2022-07-24T06:36:06;99147.94;;;23.21;60.00
21594;BME280;10959;51.328;7.322;2022-07-24T06:38:33;99146.75;;;23.34;59.63
21594;BME280;10959;51.328;7.322;2022-07-24T06:40:59;99143.81;;;23.45;59.16
21594;BME280;10959;51.328;7.322;2022-07-24T06:43:26;99152.56;;;23.58;59.11
21594;BME280;10959;51.328;7.322;2022-07-24T06:45:53;99154.13;;;23.71;59.12
21594;BME280;10959;51.328;7.322;2022-07-24T06:48:21;99149.13;;;23.84;59.06
21594;BME280;10959;51.328;7.322;2022-07-24T06:50:48;99150.97;;;23.93;58.79
21594;BME280;10959;51.328;7.322;2022-07-24T06:53:15;99154.25;;;24.07;58.42
21594;BME280;10959;51.328;7.322;2022-07-24T06:55:42;99151.59;;;24.15;57.83
21594;BME280;10959;51.328;7.322;2022-07-24T06:58:08;99156.72;;;24.28;57.49
21594;BME280;10959;51.328;7.322;2022-07-24T07:00:36;99154.59;;;24.40;57.06
21594;BME280;10959;51.328;7.322;2022-07-24T07:03:03;99153.63;;;24.49;57.38
21594;BME280;10959;51.328;7.322;2022-07-24T07:05:32;99157.19;;;24.59;57.30
21594;BME280;10959;51.328;7.322;2022-07-24T07:07:59;99156.28;;;24.69;57.19
21594;BME280;10959;51.328;7.322;2022-07-24T07:10:25;99158.09;;;24.78;56.89
21594;BME280;10959;51.328;7.322;2022-07-24T07:12:52;99157.97;;;24.88;56.46
21594;BME280;10959;51.328;7.322;2022-07-24T07:15:19;99157.56;;;25.00;56.34
21594;BME280;10959;51.328;7.322;2022-07-24T07:17:46;99164.72;;;25.11;55.60
21594;BME280;10959;51.328;7.322;2022-07-24T07:20:14;99155.63;;;25.19;55.11
21594;BME280;10959;51.328;7.322;2022-07-24T07:22:43;99167.44;;;25.29;55.33
21594;BME280;10959;51.328;7.322;2022-07-24T07:25:10;99164.75;;;25.38;54.84
21594;BME280;10959;51.328;7.322;2022-07-24T07:27:38;99169.31;;;25.47;54.83
21594;BME280;10959;51.328;7.322;2022-07-24T07:30:06;99163.13;;;25.53;54.68
21594;BME280;10959;51.328;7.322;2022-07-24T07:32:34;99162.78;;;25.56;53.84
21594;BME280;10959;51.328;7.322;2022-07-24T07:35:01;99172.19;;;25.72;54.30
21594;BME280;10959;51.328;7.322;2022-07-24T07:37:28;99164.16;;;25.86;54.30
21594;BME280;10959;51.328;7.322;2022-07-24T07:39:55;99164.00;;;25.96;53.11
21594;BME280;10959;51.328;7.322;2022-07-24T07:42:23;99165.03;;;25.87;52.01
21594;BME280;10959;51.328;7.322;2022-07-24T07:44:49;99168.91;;;26.02;53.38
21594;BME280;10959;51.328;7.322;2022-07-24T07:47:16;99167.59;;;26.23;53.42
21594;BME280;10959;51.328;7.322;2022-07-24T07:49:43;99162.09;;;26.31;52.76
21594;BME280;10959;51.328;7.322;2022-07-24T07:52:10;99168.50;;;26.48;52.28
21594;BME280;10959;51.328;7.322;2022-07-24T07:54:36;99164.53;;;26.59;52.83
21594;BME280;10959;51.328;7.322;2022-07-24T07:57:05;99159.09;;;26.76;52.04
21594;BME280;10959;51.328;7.322;2022-07-24T07:59:31;99166.16;;;26.86;52.12
21594;BME280;10959;51.328;7.322;2022-07-24T08:01:58;99166.69;;;27.06;51.59
21594;BME280;10959;51.328;7.322;2022-07-24T08:04:24;99174.28;;;27.21;51.23
21594;BME280;10959;51.328;7.322;2022-07-24T08:06:51;99167.31;;;27.33;51.64
21594;BME280;10959;51.328;7.322;2022-07-24T08:09:18;99162.84;;;27.40;49.89
21594;BME280;10959;51.328;7.322;2022-07-24T08:11:46;99169.75;;;27.45;49.53
21594;BME280;10959;51.328;7.322;2022-07-24T08:14:14;99168.34;;;27.57;49.85
21594;BME280;10959;51.328;7.322;2022-07-24T08:16:40;99165.56;;;27.65;49.34
21594;BME280;10959;51.328;7.322;2022-07-24T08:19:07;99169.31;;;27.81;49.20
21594;BME280;10959;51.328;7.322;2022-07-24T08:21:34;99168.25;;;27.90;48.99
21594;BME280;10959;51.328;7.322;2022-07-24T08:24:00;99172.72;;;27.99;48.98
21594;BME280;10959;51.328;7.322;2022-07-24T08:26:27;99165.44;;;28.06;48.42
21594;BME280;10959;51.328;7.322;2022-07-24T08:28:56;99175.75;;;28.21;48.67
21594;BME280;10959;51.328;7.322;2022-07-24T08:31:24;99164.44;;;28.31;48.28
21594;BME280;10959;51.328;7.322;2022-07-24T08:33:51;99168.53;;;28.43;47.64
21594;BME280;10959;51.328;7.322;2022-07-24T08:36:18;99169.28;;;28.60;48.46
21594;BME280;10959;51.328;7.322;2022-07-24T08:38:44;99164.38;;;28.70;47.83
21594;BME280;10959;51.328;7.322;2022-07-24T08:41:11;99164.63;;;28.84;47.78
21594;BME280;10959;51.328;7.322;2022-07-24T08:43:38;99174.41;;;28.94;47.67
21594;BME280;10959;51.328;7.322;2022-07-24T08:46:08;99166.22;;;29.01;47.65
21594;BME280;10959;51.328;7.322;2022-07-24T08:48:37;99171.53;;;29.11;47.58
21594;BME280;10959;51.328;7.322;2022-07-24T08:51:08;99166.03;;;29.26;45.94
21594;BME280;10959;51.328;7.322;2022-07-24T08:53:35;99177.78;;;29.28;46.94
21594;BME280;10959;51.328;7.322;2022-07-24T08:56:01;99172.22;;;29.28;46.24
21594;BME280;10959;51.328;7.322;2022-07-24T08:58:28;99167.75;;;29.42;46.60
21594;BME280;10959;51.328;7.322;2022-07-24T09:00:54;99169.22;;;29.53;45.92
21594;BME280;10959;51.328;7.322;2022-07-24T09:03:21;99174.13;;;29.65;46.03
21594;BME280;10959;51.328;7.322;2022-07-24T09:05:56;99166.38;;;29.61;46.39
21594;BME280;10959;51.328;7.322;2022-07-24T09:08:22;99172.38;;;29.79;45.91
21594;BME280;10959;51.328;7.322;2022-07-24T09:11:00;99170.38;;;29.73;45.28
21594;BME280;10959;51.328;7.322;2022-07-24T09:13:29;99172.41;;;29.94;45.46
21594;BME280;10959;51.328;7.322;2022-07-24T09:16:17;99164.84;;;30.03;43.95
21594;BME280;10959;51.328;7.322;2022-07-24T09:18:48;99165.38;;;30.13;45.28
21594;BME280;10959;51.328;7.322;2022-07-24T09:21:16;99159.13;;;30.26;44.79
21594;BME280;10959;51.328;7.322;2022-07-24T09:23:44;99147.13;;;30.41;45.23
21594;BME280;10959;51.328;7.322;2022-07-24T09:26:10;99157.31;;;30.48;43.95
21594;BME280;10959;51.328;7.322;2022-07-24T09:28:48;99150.78;;;30.41;43.96
21594;BME280;10959;51.328;7.322;2022-07-24T09:31:15;99146.59;;;30.67;44.09
21594;BME280;10959;51.328;7.322;2022-07-24T09:33:42;99141.69;;;30.69;42.91
21594;BME280;10959;51.328;7.322;2022-07-24T09:36:11;99137.72;;;30.78;43.53
21594;BME280;10959;51.328;7.322;2022-07-24T09:38:44;99147.41;;;30.82;42.35
21594;BME280;10959;51.328;7.322;2022-07-24T09:41:12;99145.53;;;30.90;43.52
21594;BME280;10959;51.328;7.322;2022-07-24T09:43:45;99150.59;;;31.01;42.60
21594;BME280;10959;51.328;7.322;2022-07-24T09:46:12;99144.63;;;31.04;41.24
21594;BME280;10959;51.328;7.322;2022-07-24T09:48:51;99141.53;;;30.99;42.42
21594;BME280;10959;51.328;7.322;2022-07-24T09:51:19;99147.22;;;31.12;41.16
21594;BME280;10959;51.328;7.322;2022-07-24T09:53:53;99140.38;;;31.08;42.07
21594;BME280;10959;51.328;7.322;2022-07-24T09:56:21;99134.81;;;31.08;39.85
21594;BME280;10959;51.328;7.322;2022-07-24T09:58:49;99135.56;;;31.24;41.49
21594;BME280;10959;51.328;7.322;2022-07-24T10:01:19;99130.34;;;31.42;43.73
21594;BME280;10959;51.328;7.322;2022-07-24T10:03:47;99140.78;;;31.62;42.54
21594;BME280;10959;51.328;7.322;2022-07-24T10:06:17;99134.66;;;31.73;42.23
21594;BME280;10959;51.328;7.322;2022-07-24T10:08:45;99130.59;;;31.82;40.98
21594;BME280;10959;51.328;7.322;2022-07-24T10:11:14;99128.75;;;31.90;42.01
21594;BME280;10959;51.328;7.322;2022-07-24T10:13:41;99128.53;;;31.98;42.16
21594;BME280;10959;51.328;7.322;2022-07-24T10:16:27;99127.66;;;31.91;42.17
21594;BME280;10959;51.328;7.322;2022-07-24T10:18:56;99124.81;;;32.19;40.96
21594;BME280;10959;51.328;7.322;2022-07-24T10:21:24;99122.69;;;32.28;40.51
21594;BME280;10959;51.328;7.322;2022-07-24T10:24:13;99120.50;;;32.16;41.33
21594;BME280;10959;51.328;7.322;2022-07-24T10:26:49;99121.75;;;32.07;38.62
21594;BME280;10959;51.328;7.322;2022-07-24T10:29:18;99122.22;;;32.17;41.73
21594;BME280;10959;51.328;7.322;2022-07-24T10:31:47;99121.88;;;32.34;40.09
21594;BME280;10959;51.328;7.322;2022-07-24T10:34:32;99123.31;;;32.23;37.28
21594;BME280;10959;51.328;7.322;2022-07-24T10:37:07;99119.28;;;32.26;40.39
21594;BME280;10959;51.328;7.322;2022-07-24T10:39:39;99118.88;;;32.42;39.40
21594;BME280;10959;51.328;7.322;2022-07-24T10:42:10;99120.19;;;32.53;39.72
21594;BME280;10959;51.328;7.322;2022-07-24T10:44:37;99116.75;;;32.58;39.25
21594;BME280;10959;51.328;7.322;2022-07-24T10:47:06;99114.22;;;32.63;39.55
21594;BME280;10959;51.328;7.322;2022-07-24T10:49:40;99117.19;;;32.54;39.34
21594;BME280;10959;51.328;7.322;2022-07-24T10:52:09;99112.94;;;32.72;38.70
21594;BME280;10959;51.328;7.322;2022-07-24T10:54:36;99110.41;;;32.77;41.15
21594;BME280;10959;51.328;7.322;2022-07-24T10:57:03;99105.25;;;32.87;40.30
21594;BME280;10959;51.328;7.322;2022-07-24T10:59:35;99100.53;;;32.81;40.95
21594;BME280;10959;51.328;7.322;2022-07-24T11:02:24;99100.06;;;32.71;39.96
21594;BME280;10959;51.328;7.322;2022-07-24T11:05:22;99100.94;;;32.85;41.46
21594;BME280;10959;51.328;7.322;2022-07-24T11:08:27;99096.66;;;32.96;41.31
21594;BME280;10959;51.328;7.322;2022-07-24T11:10:58;99097.53;;;33.23;38.35
21594;BME280;10959;51.328;7.322;2022-07-24T11:13:42;99094.31;;;33.13;40.59
21594;BME280;10959;51.328;7.322;2022-07-24T11:16:21;99097.72;;;33.28;39.00
21594;BME280;10959;51.328;7.322;2022-07-24T11:19:29;99096.66;;;33.22;39.62
21594;BME280;10959;51.328;7.322;2022-07-24T11:22:07;99094.94;;;33.35;39.66
21594;BME280;10959;51.328;7.322;2022-07-24T11:24:34;99092.72;;;33.64;39.18
21594;BME280;10959;51.328;7.322;2022-07-24T11:27:06;99090.13;;;33.69;39.52
21594;BME280;10959;51.328;7.322;2022-07-24T11:29:35;99085.41;;;33.76;38.25
21594;BME280;10959;51.328;7.322;2022-07-24T11:32:04;99088.84;;;33.65;37.94
21594;BME280;10959;51.328;7.322;2022-07-24T11:34:33;99083.91;;;33.67;38.91
21594;BME280;10959;51.328;7.322;2022-07-24T11:37:01;99082.16;;;33.79;38.93
21594;BME280;10959;51.328;7.322;2022-07-24T11:39:29;99072.03;;;33.91;38.02
21594;BME280;10959;51.328;7.322;2022-07-24T11:42:00;99076.28;;;34.01;37.89
21594;BME280;10959;51.328;7.322;2022-07-24T11:44:28;99073.03;;;34.04;39.23
21594;BME280;10959;51.328;7.322;2022-07-24T11:46:56;99070.69;;;34.01;36.99
21594;BME280;10959;51.328;7.322;2022-07-24T11:49:25;99068.09;;;34.06;37.32
21594;BME280;10959;51.328;7.322;2022-07-24T11:51:53;99074.06;;;34.16;39.04
21594;BME280;10959;51.328;7.322;2022-07-24T11:54:22;99063.69;;;34.23;37.07
21594;BME280;10959;51.328;7.322;2022-07-24T11:56:49;99067.78;;;34.27;38.55
21594;BME280;10959;51.328;7.322;2022-07-24T11:59:23;99068.81;;;34.26;37.64
21594;BME280;10959;51.328;7.322;2022-07-24T12:01:50;99056.81;;;34.19;34.77
21594;BME280;10959;51.328;7.322;2022-07-24T12:04:19;99057.72;;;34.20;36.19
21594;BME280;10959;51.328;7.322;2022-07-24T12:06:47;99057.03;;;34.24;36.02
21594;BME280;10959;51.328;7.322;2022-07-24T12:09:13;99056.38;;;34.29;37.14
21594;BME280;10959;51.328;7.322;2022-07-24T12:11:40;99055.06;;;34.32;37.39
21594;BME280;10959;51.328;7.322;2022-07-24T12:14:13;99054.69;;;34.21;36.37
21594;BME280;10959;51.328;7.322;2022-07-24T12:16:39;99058.75;;;34.25;36.29
21594;BME280;10959;51.328;7.322;2022-07-24T12:19:14;99047.38;;;34.20;37.50
21594;BME280;10959;51.328;7.322;2022-07-24T12:21:41;99049.94;;;34.22;35.74
21594;BME280;10959;51.328;7.322;2022-07-24T12:24:09;99049.25;;;34.26;36.48
21594;BME280;10959;51.328;7.322;2022-07-24T12:26:47;99047.88;;;34.04;35.08
21594;BME280;10959;51.328;7.322;2022-07-24T12:29:14;99047.38;;;34.20;36.14
21594;BME280;10959;51.328;7.322;2022-07-24T12:31:40;99041.78;;;34.20;34.90
21594;BME280;10959;51.328;7.322;2022-07-24T12:34:07;99040.50;;;34.16;34.93
21594;BME280;10959;51.328;7.322;2022-07-24T12:36:33;99039.88;;;34.14;34.28
21594;BME280;10959;51.328;7.322;2022-07-24T12:39:00;99033.66;;;34.12;36.78
21594;BME280;10959;51.328;7.322;2022-07-24T12:41:30;99034.53;;;34.13;34.89
21594;BME280;10959;51.328;7.322;2022-07-24T12:43:58;99028.16;;;33.99;34.22
21594;BME280;10959;51.328;7.322;2022-07-24T12:46:31;99025.69;;;33.64;32.70
21594;BME280;10959;51.328;7.322;2022-07-24T12:48:59;99025.66;;;33.70;36.91
21594;BME280;10959;51.328;7.322;2022-07-24T12:51:26;99009.34;;;33.74;35.05
21594;BME280;10959;51.328;7.322;2022-07-24T12:53:54;99014.06;;;33.80;36.07
21594;BME280;10959;51.328;7.322;2022-07-24T12:56:21;99021.38;;;33.81;37.85
21594;BME280;10959;51.328;7.322;2022-07-24T12:58:52;99014.69;;;33.82;37.26
21594;BME280;10959;51.328;7.322;2022-07-24T13:01:20;99009.28;;;33.87;36.19
21594;BME280;10959;51.328;7.322;2022-07-24T13:03:55;98997.50;;;33.72;37.67
21594;BME280;10959;51.328;7.322;2022-07-24T13:06:33;99005.91;;;33.65;38.42